createdAt,value
2022-10-13T00:02:45.420Z,13.28
2022-10-13T00:06:46.911Z,13.27
2022-10-13T00:10:50.301Z,13.27
2022-10-13T00:14:53.956Z,13.28
2022-10-13T00:18:55.621Z,13.31
2022-10-13T00:22:57.115Z,13.28
2022-10-13T00:26:58.674Z,13.27
2022-10-13T00:31:01.480Z,13.27
2022-10-13T00:35:03.229Z,13.25
2022-10-13T00:39:05.000Z,13.25
2022-10-13T00:43:16.506Z,13.24
2022-10-13T00:47:19.348Z,13.27
2022-10-13T00:51:24.137Z,13.27
2022-10-13T00:55:31.474Z,13.25
2022-10-13T00:59:34.754Z,13.22
2022-10-13T01:03:36.637Z,13.21
2022-10-13T01:07:38.227Z,13.22
2022-10-13T01:11:58.295Z,13.19
2022-10-13T01:16:06.299Z,13.16
2022-10-13T01:20:40.652Z,13.13
2022-10-13T01:24:47.462Z,13.12
2022-10-13T01:29:11.608Z,13.06
2022-10-13T01:33:19.732Z,13.04
2022-10-13T01:37:32.726Z,13.03
2022-10-13T01:41:40.264Z,13.03
2022-10-13T01:45:53.655Z,13.06
2022-10-13T01:49:56.731Z,13.09
2022-10-13T01:53:58.287Z,13.09
2022-10-13T01:57:59.904Z,13.10
2022-10-13T02:02:24.867Z,13.07
2022-10-13T02:06:33.414Z,12.99
2022-10-13T02:10:39.016Z,12.98
2022-10-13T02:14:43.017Z,12.94
2022-10-13T02:18:44.686Z,12.89
2022-10-13T02:22:54.473Z,12.88
2022-10-13T02:26:56.697Z,12.84
2022-10-13T02:30:58.284Z,12.79
2022-10-13T02:34:59.777Z,12.73
2022-10-13T02:39:01.435Z,12.66
2022-10-13T02:43:03.162Z,12.67
2022-10-13T02:47:04.689Z,12.63
2022-10-13T02:51:06.263Z,12.61
2022-10-13T02:55:08.172Z,12.58
2022-10-13T02:59:09.712Z,12.58
2022-10-13T03:03:11.640Z,12.55
2022-10-13T03:07:13.206Z,12.58
2022-10-13T03:11:14.751Z,12.58
2022-10-13T03:15:16.337Z,12.58
2022-10-13T03:19:17.808Z,12.58
2022-10-13T03:23:19.414Z,12.55
2022-10-13T03:27:20.917Z,12.56
2022-10-13T03:31:22.495Z,12.56
2022-10-13T03:35:24.000Z,12.56
2022-10-13T03:39:25.618Z,12.55
2022-10-13T03:43:27.695Z,12.55
2022-10-13T03:47:29.510Z,12.54
2022-10-13T03:51:31.292Z,12.56
2022-10-13T03:55:33.159Z,12.56
2022-10-13T03:59:36.939Z,12.58
2022-10-13T04:03:38.706Z,12.59
2022-10-13T04:07:40.220Z,12.62
2022-10-13T04:11:53.529Z,12.63
2022-10-13T04:15:55.127Z,12.66
2022-10-13T04:19:56.624Z,12.67
2022-10-13T04:23:59.241Z,12.63
2022-10-13T04:28:00.729Z,12.61
2022-10-13T04:32:02.229Z,12.59
2022-10-13T04:36:05.312Z,12.55
2022-10-13T04:40:07.194Z,12.52
2022-10-13T04:44:10.019Z,12.52
2022-10-13T04:48:11.801Z,12.54
2022-10-13T04:52:13.282Z,12.55
2022-10-13T04:56:17.143Z,12.52
2022-10-13T05:00:18.916Z,12.54
2022-10-13T05:04:20.417Z,12.55
2022-10-13T05:08:22.575Z,12.55
2022-10-13T05:12:24.214Z,12.55
2022-10-13T05:16:26.156Z,12.51
2022-10-13T05:20:27.697Z,12.49
2022-10-13T05:24:38.837Z,12.51
2022-10-13T05:28:40.947Z,12.52
2022-10-13T05:32:42.603Z,12.49
2022-10-13T05:36:44.154Z,12.46
2022-10-13T05:40:45.756Z,12.46
2022-10-13T05:44:47.297Z,12.51
2022-10-13T05:48:48.923Z,12.51
2022-10-13T05:52:51.636Z,12.49
2022-10-13T05:57:07.579Z,12.51
2022-10-13T06:01:12.695Z,12.51
2022-10-13T06:05:17.418Z,12.51
2022-10-13T06:09:19.388Z,12.51
2022-10-13T06:13:20.889Z,12.54
2022-10-13T06:17:22.422Z,12.59
2022-10-13T06:21:24.171Z,12.66
2022-10-13T06:25:25.745Z,12.71
2022-10-13T06:29:27.263Z,12.77
2022-10-13T06:33:28.849Z,12.81
2022-10-13T06:37:30.480Z,12.85
2022-10-13T06:41:32.085Z,12.89
2022-10-13T06:45:33.679Z,12.94
2022-10-13T06:49:35.326Z,12.99
2022-10-13T06:53:37.046Z,12.96
2022-10-13T06:57:38.808Z,12.98
2022-10-13T07:01:42.075Z,13.04
2022-10-13T07:05:47.079Z,13.09
2022-10-13T07:09:49.268Z,13.10
2022-10-13T07:13:50.869Z,13.21
2022-10-13T07:17:53.981Z,13.29
2022-10-13T07:21:56.405Z,13.39
2022-10-13T07:25:58.704Z,13.43
2022-10-13T07:30:00.222Z,13.48
2022-10-13T07:34:02.138Z,13.55
2022-10-13T07:38:05.126Z,13.59
2022-10-13T07:42:06.614Z,13.61
2022-10-13T07:46:08.708Z,13.62
2022-10-13T07:50:10.621Z,13.61
2022-10-13T07:54:12.238Z,13.63
2022-10-13T07:58:14.122Z,13.72
2022-10-13T08:02:15.643Z,13.84
2022-10-13T08:06:17.758Z,13.96
2022-10-13T08:10:19.603Z,13.99
2022-10-13T08:14:21.282Z,14.05
2022-10-13T08:18:22.809Z,14.12
2022-10-13T08:22:28.096Z,14.09
2022-10-13T08:26:30.152Z,14.02
2022-10-13T08:30:32.330Z,13.99
2022-10-13T08:34:35.812Z,13.96
2022-10-13T08:38:37.449Z,13.88
2022-10-13T08:42:44.318Z,13.87
2022-10-13T08:47:01.503Z,13.81
2022-10-13T08:51:06.637Z,13.81
2022-10-13T08:55:20.253Z,13.80
2022-10-13T08:59:22.004Z,13.80
2022-10-13T09:03:27.667Z,13.81
2022-10-13T09:07:34.595Z,13.86
2022-10-13T09:11:39.687Z,13.99
2022-10-13T09:15:50.288Z,14.09
2022-10-13T09:20:22.014Z,14.12
2022-10-13T09:24:25.453Z,14.05
2022-10-13T09:28:30.032Z,14.01
2022-10-13T09:32:35.347Z,13.99
2022-10-13T09:36:37.946Z,13.99
2022-10-13T09:40:40.840Z,14.01
2022-10-13T09:44:42.708Z,14.05
2022-10-13T09:48:49.066Z,14.09
2022-10-13T09:52:51.078Z,14.11
2022-10-13T09:57:34.156Z,14.09
2022-10-13T10:01:41.799Z,14.12
2022-10-13T10:05:52.212Z,14.20
2022-10-13T10:10:01.718Z,14.20
2022-10-13T10:14:20.810Z,14.30
2022-10-13T10:18:30.718Z,14.38
2022-10-13T10:22:59.658Z,14.44
2022-10-13T10:27:30.436Z,14.48
2022-10-13T10:31:49.843Z,14.52
2022-10-13T10:36:16.857Z,14.49
2022-10-13T10:40:59.834Z,14.54
2022-10-13T10:45:04.483Z,14.63
2022-10-13T10:49:35.929Z,14.66
2022-10-13T10:53:57.765Z,14.66
2022-10-13T10:58:12.649Z,14.78
2022-10-13T11:02:38.641Z,14.87
2022-10-13T11:06:40.251Z,15.03
2022-10-13T11:10:41.789Z,15.22
2022-10-13T11:14:43.318Z,15.35
2022-10-13T11:19:29.161Z,15.55
2022-10-13T11:23:33.652Z,15.89
2022-10-13T11:27:35.072Z,16.25
2022-10-13T11:31:51.719Z,16.40
2022-10-13T11:35:53.622Z,16.54
2022-10-13T11:40:21.180Z,16.60
2022-10-13T11:44:41.950Z,16.63
2022-10-13T11:48:52.532Z,16.65
2022-10-13T11:53:16.421Z,16.66
2022-10-13T11:57:23.899Z,16.69
2022-10-13T12:01:25.417Z,16.72
2022-10-13T12:05:29.035Z,16.75
2022-10-13T12:09:31.949Z,16.78
2022-10-13T12:13:35.928Z,16.82
2022-10-13T12:17:38.850Z,16.85
2022-10-13T12:21:55.355Z,16.87
2022-10-13T12:25:58.615Z,16.92
2022-10-13T12:30:01.430Z,16.91
2022-10-13T12:34:03.568Z,16.95
2022-10-13T12:38:19.140Z,16.90
2022-10-13T12:42:28.801Z,16.88
2022-10-13T12:46:42.633Z,16.85
2022-10-13T12:50:44.747Z,16.88
2022-10-13T12:54:55.178Z,16.96
2022-10-13T12:58:58.613Z,17.05
2022-10-13T13:03:01.505Z,17.17
2022-10-13T13:07:04.952Z,17.27
2022-10-13T13:11:20.039Z,17.32
2022-10-13T13:15:25.178Z,17.32
2022-10-13T13:19:26.918Z,17.30
2022-10-13T13:23:34.020Z,17.24
2022-10-13T13:27:40.029Z,17.15
2022-10-13T13:31:41.878Z,17.10
2022-10-13T13:35:43.443Z,17.03
2022-10-13T13:39:44.976Z,17.00
2022-10-13T13:43:46.679Z,17.00
2022-10-13T13:47:48.434Z,17.07
2022-10-13T13:51:50.004Z,17.22
2022-10-13T13:55:52.136Z,17.40
2022-10-13T13:59:53.755Z,17.53
2022-10-13T14:03:55.276Z,17.60
2022-10-13T14:07:58.034Z,17.54
2022-10-13T14:11:59.943Z,17.57
2022-10-13T14:16:02.636Z,17.58
2022-10-13T14:20:04.619Z,17.49
2022-10-13T14:24:10.559Z,17.36
2022-10-13T14:28:17.245Z,17.22
2022-10-13T14:32:19.976Z,17.10
2022-10-13T14:36:21.787Z,17.05
2022-10-13T14:40:23.307Z,17.02
2022-10-13T14:44:24.805Z,16.96
2022-10-13T14:48:26.373Z,16.90
2022-10-13T14:52:27.881Z,16.88
2022-10-13T14:56:30.949Z,16.85
2022-10-13T15:00:32.741Z,16.81
2022-10-13T15:04:36.025Z,16.80
2022-10-13T15:08:37.558Z,16.73
2022-10-13T15:12:39.059Z,16.70
2022-10-13T15:16:40.708Z,16.66
2022-10-13T15:20:49.099Z,16.65
2022-10-13T15:24:51.188Z,16.63
2022-10-13T15:28:53.523Z,16.60
2022-10-13T15:32:55.186Z,16.59
2022-10-13T15:36:58.373Z,16.59
2022-10-13T15:41:01.300Z,16.55
2022-10-13T15:45:11.601Z,16.54
2022-10-13T15:49:13.460Z,16.48
2022-10-13T15:53:15.110Z,16.45
2022-10-13T15:57:16.977Z,16.40
2022-10-13T16:01:18.610Z,16.36
2022-10-13T16:05:20.316Z,16.30
2022-10-13T16:09:21.857Z,16.29
2022-10-13T16:13:23.552Z,16.25
2022-10-13T16:17:25.145Z,16.18
2022-10-13T16:21:26.875Z,16.17
2022-10-13T16:25:29.267Z,16.14
2022-10-13T16:29:30.810Z,16.11
2022-10-13T16:33:37.280Z,16.10
2022-10-13T16:37:38.770Z,16.06
2022-10-13T16:41:40.657Z,16.03
2022-10-13T16:45:58.986Z,15.99
2022-10-13T16:50:01.715Z,15.96
2022-10-13T16:54:04.594Z,15.96
2022-10-13T16:58:06.629Z,15.93
2022-10-13T17:02:14.402Z,15.89
2022-10-13T17:06:17.995Z,15.86
2022-10-13T17:10:19.492Z,15.86
2022-10-13T17:14:21.025Z,15.85
2022-10-13T17:18:23.575Z,15.80
2022-10-13T17:22:25.157Z,15.78
2022-10-13T17:26:26.727Z,15.76
2022-10-13T17:30:31.329Z,15.74
2022-10-13T17:34:33.055Z,15.74
2022-10-13T17:38:35.129Z,15.70
2022-10-13T17:42:38.418Z,15.67
2022-10-13T17:46:40.097Z,15.66
2022-10-13T17:50:41.690Z,15.62
2022-10-13T17:54:43.311Z,15.62
2022-10-13T17:58:46.627Z,15.62
2022-10-13T18:02:48.840Z,15.59
2022-10-13T18:06:51.184Z,15.59
2022-10-13T18:11:08.716Z,15.58
2022-10-13T18:15:10.513Z,15.56
2022-10-13T18:19:12.494Z,15.55
2022-10-13T18:23:14.838Z,15.55
2022-10-13T18:27:16.389Z,15.52
2022-10-13T18:31:27.499Z,15.52
2022-10-13T18:35:32.446Z,15.49
2022-10-13T18:39:34.415Z,15.48
2022-10-13T18:43:35.922Z,15.46
2022-10-13T18:47:37.432Z,15.44
2022-10-13T18:51:40.320Z,15.43
2022-10-13T18:55:43.685Z,15.43
2022-10-13T18:59:45.262Z,15.41
2022-10-13T19:03:48.055Z,15.38
2022-10-13T19:07:49.589Z,15.38
2022-10-13T19:11:51.137Z,15.40
2022-10-13T19:16:00.163Z,15.40
2022-10-13T19:20:01.705Z,15.38
2022-10-13T19:24:03.777Z,15.37
2022-10-13T19:28:05.398Z,15.38
2022-10-13T19:32:07.552Z,15.37
2022-10-13T19:36:10.792Z,15.38
2022-10-13T19:40:12.361Z,15.38
2022-10-13T19:44:16.012Z,15.38
2022-10-13T19:48:17.516Z,15.38
2022-10-13T19:52:19.065Z,15.37
2022-10-13T19:56:26.641Z,15.37
2022-10-13T20:00:28.255Z,15.35
2022-10-13T20:04:30.008Z,15.34
2022-10-13T20:08:31.550Z,15.37
2022-10-13T20:12:33.099Z,15.35
2022-10-13T20:16:34.925Z,15.37
2022-10-13T20:20:36.790Z,15.35
2022-10-13T20:24:38.384Z,15.35
2022-10-13T20:28:43.587Z,15.35
2022-10-13T20:32:45.405Z,15.35
2022-10-13T20:36:50.279Z,15.34
2022-10-13T20:40:51.821Z,15.34
2022-10-13T20:44:53.553Z,15.31
2022-10-13T20:49:10.290Z,15.33
2022-10-13T20:53:12.768Z,15.31
2022-10-13T20:57:15.965Z,15.30
2022-10-13T21:01:21.195Z,15.30
2022-10-13T21:05:22.752Z,15.30
2022-10-13T21:09:24.294Z,15.28
2022-10-13T21:13:26.572Z,15.27
2022-10-13T21:17:29.716Z,15.25
2022-10-13T21:21:32.979Z,15.25
2022-10-13T21:25:35.652Z,15.20
2022-10-13T21:29:37.144Z,15.22
2022-10-13T21:33:40.093Z,15.20
2022-10-13T21:37:41.623Z,15.20
2022-10-13T21:41:43.235Z,15.18
2022-10-13T21:45:44.802Z,15.18
2022-10-13T21:49:46.360Z,15.18
2022-10-13T21:53:50.184Z,15.19
2022-10-13T21:57:51.715Z,15.18
2022-10-13T22:01:54.245Z,15.18
2022-10-13T22:05:55.805Z,15.18
2022-10-13T22:09:57.347Z,15.18
2022-10-13T22:13:59.601Z,15.16
2022-10-13T22:18:01.205Z,15.16
2022-10-13T22:22:03.867Z,15.16
2022-10-13T22:26:05.442Z,15.16
2022-10-13T22:30:07.742Z,15.15
2022-10-13T22:34:09.594Z,15.13
2022-10-13T22:38:11.088Z,15.13
2022-10-13T22:42:12.574Z,15.12
2022-10-13T22:46:15.860Z,15.13
2022-10-13T22:50:18.463Z,15.15
2022-10-13T22:54:19.994Z,15.15
2022-10-13T22:58:21.517Z,15.15
2022-10-13T23:02:24.657Z,15.13
2022-10-13T23:06:33.122Z,15.13
2022-10-13T23:10:36.965Z,15.13
2022-10-13T23:14:38.477Z,15.15
2022-10-13T23:18:40.463Z,15.13
2022-10-13T23:22:44.265Z,15.13
2022-10-13T23:26:45.780Z,15.11
2022-10-13T23:30:47.274Z,15.12
2022-10-13T23:34:49.935Z,15.11
2022-10-13T23:38:59.801Z,15.09
2022-10-13T23:43:01.318Z,15.07
2022-10-13T23:47:02.855Z,15.07
2022-10-13T23:51:10.072Z,15.04
2022-10-13T23:55:11.645Z,15.05
2022-10-13T23:59:13.183Z,15.05
